createdAt,value
2018-09-02T00:00:28.060Z,59.27
2018-09-02T00:00:59.174Z,59.61
2018-09-02T00:01:30.303Z,59.67
2018-09-02T00:02:01.408Z,58.98
2018-09-02T00:02:32.516Z,59.17
2018-09-02T00:03:03.668Z,58.65
2018-09-02T00:03:34.781Z,58.70
2018-09-02T00:04:05.915Z,58.91
2018-09-02T00:04:37.046Z,58.81
2018-09-02T00:05:08.159Z,58.68
2018-09-02T00:05:39.323Z,58.54
2018-09-02T00:06:10.434Z,59.23
2018-09-02T00:06:42.354Z,59.10
2018-09-02T00:07:13.463Z,59.23
2018-09-02T00:07:44.575Z,58.89
2018-09-02T00:08:15.679Z,59.34
2018-09-02T00:08:46.790Z,59.10
2018-09-02T00:09:17.907Z,58.68
2018-09-02T00:09:49.033Z,58.54
2018-09-02T00:10:20.144Z,59.03
2018-09-02T00:10:51.297Z,59.46
2018-09-02T00:11:22.417Z,59.26
2018-09-02T00:11:53.545Z,59.56
2018-09-02T00:12:24.657Z,58.93
2018-09-02T00:12:55.767Z,58.58
2018-09-02T00:13:26.877Z,59.03
2018-09-02T00:13:58.006Z,58.27
2018-09-02T00:14:29.128Z,58.45
2018-09-02T00:15:00.240Z,58.42
2018-09-02T00:15:31.361Z,58.10
2018-09-02T00:16:02.512Z,56.93
2018-09-02T00:16:33.628Z,57.33
2018-09-02T00:17:04.744Z,56.63
2018-09-02T00:17:35.853Z,57.07
2018-09-02T00:18:06.966Z,56.29
2018-09-02T00:18:38.083Z,56.26
2018-09-02T00:19:09.199Z,56.72
2018-09-02T00:19:40.311Z,56.00
2018-09-02T00:20:11.420Z,56.95
2018-09-02T00:20:43.452Z,56.11
2018-09-02T00:21:14.600Z,56.39
2018-09-02T00:21:45.719Z,56.55
2018-09-02T00:22:16.856Z,56.69
2018-09-02T00:22:47.971Z,55.60
2018-09-02T00:23:19.093Z,55.93
2018-09-02T00:23:50.203Z,56.05
2018-09-02T00:24:21.332Z,55.74
2018-09-02T00:24:52.449Z,56.55
2018-09-02T00:25:23.559Z,56.58
2018-09-02T00:25:54.702Z,56.16
2018-09-02T00:26:26.812Z,56.69
2018-09-02T00:26:57.965Z,56.18
2018-09-02T00:27:29.119Z,56.48
2018-09-02T00:28:00.240Z,57.03
2018-09-02T00:28:31.388Z,56.29
2018-09-02T00:29:03.515Z,56.29
2018-09-02T00:29:34.648Z,56.34
2018-09-02T00:30:05.772Z,56.86
2018-09-02T00:30:36.924Z,56.61
2018-09-02T00:31:08.072Z,56.40
2018-09-02T00:31:39.213Z,56.51
2018-09-02T00:32:10.337Z,55.80
2018-09-02T00:32:41.448Z,56.42
2018-09-02T00:33:12.646Z,55.76
2018-09-02T00:33:43.710Z,55.25
2018-09-02T00:34:14.838Z,55.41
2018-09-02T00:34:45.954Z,55.96
2018-09-02T00:35:17.075Z,55.83
2018-09-02T00:35:48.209Z,55.66
2018-09-02T00:36:19.794Z,55.66
2018-09-02T00:36:50.981Z,55.17
2018-09-02T00:37:22.151Z,54.83
2018-09-02T00:37:53.336Z,55.62
2018-09-02T00:38:24.498Z,54.83
2018-09-02T00:38:55.656Z,54.49
2018-09-02T00:39:26.807Z,54.81
2018-09-02T00:39:57.962Z,54.92
2018-09-02T00:40:29.184Z,54.93
2018-09-02T00:41:00.378Z,55.30
2018-09-02T00:41:31.486Z,54.95
2018-09-02T00:42:02.634Z,54.93
2018-09-02T00:42:33.755Z,55.23
2018-09-02T00:43:04.871Z,55.71
2018-09-02T00:43:35.993Z,55.70
2018-09-02T00:44:07.113Z,56.10
2018-09-02T00:44:38.223Z,55.84
2018-09-02T00:45:09.347Z,56.09
2018-09-02T00:45:40.469Z,56.26
2018-09-02T00:46:11.586Z,56.36
2018-09-02T00:46:42.707Z,56.23
2018-09-02T00:47:13.863Z,56.50
2018-09-02T00:47:44.979Z,56.74
2018-09-02T00:48:16.103Z,56.40
2018-09-02T00:48:47.211Z,56.74
2018-09-02T00:49:18.332Z,56.66
2018-09-02T00:49:49.451Z,56.78
2018-09-02T00:50:20.555Z,57.01
2018-09-02T00:50:51.668Z,56.49
2018-09-02T00:51:22.780Z,57.19
2018-09-02T00:51:53.891Z,57.16
2018-09-02T00:52:25.056Z,57.31
2018-09-02T00:52:56.180Z,56.69
2018-09-02T00:53:27.316Z,57.86
2018-09-02T00:53:58.433Z,57.82
2018-09-02T00:54:29.539Z,57.63
2018-09-02T00:55:00.658Z,57.12
2018-09-02T00:55:31.776Z,57.28
2018-09-02T00:56:02.914Z,57.17
2018-09-02T00:56:34.032Z,56.52
2018-09-02T00:57:05.145Z,56.42
2018-09-02T00:57:36.756Z,56.75
2018-09-02T00:58:07.927Z,57.67
2018-09-02T00:58:39.073Z,57.46
2018-09-02T00:59:10.188Z,57.67
2018-09-02T00:59:41.324Z,56.94
2018-09-02T01:00:12.443Z,56.52
2018-09-02T01:00:43.577Z,57.16
2018-09-02T01:01:14.729Z,56.92
2018-09-02T01:01:45.852Z,57.58
2018-09-02T01:02:16.965Z,57.19
2018-09-02T01:02:48.108Z,57.49
2018-09-02T01:03:19.259Z,57.35
2018-09-02T01:03:50.378Z,58.14
2018-09-02T01:04:21.488Z,58.66
2018-09-02T01:04:52.611Z,58.10
2018-09-02T01:05:23.727Z,59.20
2018-09-02T01:05:54.835Z,59.84
2018-09-02T01:06:25.964Z,59.34
2018-09-02T01:06:57.092Z,60.33
2018-09-02T01:07:28.196Z,60.83
2018-09-02T01:07:59.307Z,60.21
2018-09-02T01:08:30.457Z,60.40
2018-09-02T01:09:01.571Z,60.84
2018-09-02T01:09:32.692Z,60.39
2018-09-02T01:10:03.810Z,60.42
2018-09-02T01:10:34.920Z,60.76
2018-09-02T01:11:06.038Z,59.99
2018-09-02T01:11:37.150Z,59.45
2018-09-02T01:12:08.263Z,60.00
2018-09-02T01:12:39.379Z,59.62
2018-09-02T01:13:10.488Z,59.59
2018-09-02T01:13:41.595Z,58.97
2018-09-02T01:14:12.717Z,58.92
2018-09-02T01:14:43.886Z,59.27
2018-09-02T01:15:15.014Z,59.70
2018-09-02T01:15:46.200Z,60.15
2018-09-02T01:16:17.311Z,59.63
2018-09-02T01:16:48.429Z,59.51
2018-09-02T01:17:19.539Z,59.96
2018-09-02T01:17:50.698Z,60.46
2018-09-02T01:18:21.858Z,60.37
2018-09-02T01:18:53.022Z,60.67
2018-09-02T01:19:24.169Z,60.34
2018-09-02T01:19:55.294Z,60.25
2018-09-02T01:20:26.415Z,60.36
2018-09-02T01:20:57.571Z,60.61
2018-09-02T01:21:28.688Z,60.53
2018-09-02T01:21:59.798Z,60.14
2018-09-02T01:22:30.920Z,60.35
2018-09-02T01:23:02.096Z,59.79
2018-09-02T01:23:33.186Z,59.78
2018-09-02T01:24:04.420Z,60.47
2018-09-02T01:24:35.563Z,60.95
2018-09-02T01:25:06.681Z,61.63
2018-09-02T01:25:37.796Z,61.68
2018-09-02T01:26:09.201Z,60.55
2018-09-02T01:26:40.303Z,60.66
2018-09-02T01:27:11.421Z,60.67
2018-09-02T01:27:42.550Z,59.76
2018-09-02T01:28:13.781Z,59.86
2018-09-02T01:28:44.901Z,60.07
2018-09-02T01:29:16.016Z,59.85
2018-09-02T01:29:47.196Z,60.53
2018-09-02T01:30:18.378Z,60.89
2018-09-02T01:30:49.501Z,60.70
2018-09-02T01:31:20.661Z,60.72
2018-09-02T01:31:51.779Z,60.58
2018-09-02T01:32:22.955Z,60.87
2018-09-02T01:32:54.137Z,60.89
2018-09-02T01:33:25.302Z,60.21
2018-09-02T01:33:56.417Z,60.71
2018-09-02T01:34:27.590Z,60.10
2018-09-02T01:34:58.707Z,60.41
2018-09-02T01:35:29.888Z,61.28
2018-09-02T01:36:00.987Z,61.56
2018-09-02T01:36:32.196Z,60.92
2018-09-02T01:37:03.433Z,61.92
2018-09-02T01:37:34.553Z,61.28
2018-09-02T01:38:05.778Z,60.67
2018-09-02T01:38:36.909Z,60.93
2018-09-02T01:39:08.076Z,60.89
2018-09-02T01:39:39.210Z,60.88
2018-09-02T01:40:10.377Z,61.45
2018-09-02T01:40:41.584Z,61.35
2018-09-02T01:41:12.763Z,60.26
2018-09-02T01:41:43.972Z,60.38
2018-09-02T01:42:15.148Z,60.57
2018-09-02T01:42:46.492Z,60.46
2018-09-02T01:43:17.664Z,60.87
2018-09-02T01:43:48.853Z,61.24
2018-09-02T01:44:20.005Z,61.30
2018-09-02T01:44:51.231Z,60.75
2018-09-02T01:45:22.410Z,60.93
2018-09-02T01:45:53.610Z,61.43
2018-09-02T01:46:24.782Z,61.21
2018-09-02T01:46:55.925Z,60.86
2018-09-02T01:47:27.101Z,60.66
2018-09-02T01:47:58.278Z,60.73
2018-09-02T01:48:29.457Z,61.11
2018-09-02T01:49:00.632Z,60.67
2018-09-02T01:49:31.783Z,60.53
2018-09-02T01:50:02.960Z,60.56
2018-09-02T01:50:34.136Z,61.44
2018-09-02T01:51:05.267Z,61.54
2018-09-02T01:51:36.384Z,60.96
2018-09-02T01:52:07.596Z,60.89
2018-09-02T01:52:38.716Z,60.99
2018-09-02T01:53:09.898Z,61.70
2018-09-02T01:53:41.130Z,61.63
2018-09-02T01:54:12.304Z,61.08
2018-09-02T01:54:43.520Z,61.29
2018-09-02T01:55:14.654Z,61.25
2018-09-02T01:55:45.768Z,61.16
2018-09-02T01:56:16.908Z,61.61
2018-09-02T01:56:48.026Z,61.95
2018-09-02T01:57:19.143Z,62.10
2018-09-02T01:57:50.268Z,61.52
2018-09-02T01:58:21.480Z,62.21
2018-09-02T01:58:52.654Z,62.27
2018-09-02T01:59:23.764Z,62.49
2018-09-02T01:59:54.885Z,62.65
2018-09-02T02:00:26.064Z,62.67
2018-09-02T02:00:57.225Z,62.37
2018-09-02T02:01:28.426Z,61.87
2018-09-02T02:01:59.559Z,62.48
2018-09-02T02:02:30.729Z,62.44
2018-09-02T02:03:01.961Z,62.29
2018-09-02T02:03:33.141Z,62.19
2018-09-02T02:04:04.297Z,62.62
2018-09-02T02:04:35.424Z,62.26
2018-09-02T02:05:06.593Z,62.40
2018-09-02T02:05:37.711Z,62.25
2018-09-02T02:06:08.818Z,62.97
2018-09-02T02:06:39.929Z,62.69
2018-09-02T02:07:11.058Z,62.35
2018-09-02T02:07:42.170Z,63.39
2018-09-02T02:08:13.369Z,63.69
2018-09-02T02:08:44.495Z,63.54
2018-09-02T02:09:15.621Z,63.82
2018-09-02T02:09:46.736Z,63.27
2018-09-02T02:10:17.853Z,64.22
2018-09-02T02:10:48.969Z,63.39
2018-09-02T02:11:20.153Z,63.67
2018-09-02T02:11:51.391Z,64.14
2018-09-02T02:12:22.543Z,65.03
2018-09-02T02:12:53.664Z,64.74
2018-09-02T02:13:24.832Z,64.52
2018-09-02T02:13:55.940Z,64.63
2018-09-02T02:14:27.088Z,65.06
2018-09-02T02:14:58.244Z,64.79
2018-09-02T02:15:29.468Z,64.15
2018-09-02T02:16:00.661Z,65.33
2018-09-02T02:16:31.840Z,65.21
2018-09-02T02:17:03.031Z,65.46
2018-09-02T02:17:34.172Z,65.82
2018-09-02T02:18:05.351Z,65.55
2018-09-02T02:18:36.636Z,64.96
2018-09-02T02:19:07.812Z,64.53
2018-09-02T02:19:38.942Z,64.88
2018-09-02T02:20:10.081Z,64.62
2018-09-02T02:20:41.332Z,65.43
2018-09-02T02:21:12.508Z,65.13
2018-09-02T02:21:43.631Z,64.80
2018-09-02T02:22:14.814Z,65.10
2018-09-02T02:22:45.979Z,64.89
2018-09-02T02:23:17.103Z,65.22
2018-09-02T02:23:48.354Z,64.67
2018-09-02T02:24:19.472Z,65.01
2018-09-02T02:24:50.654Z,64.94
2018-09-02T02:25:21.872Z,65.57
2018-09-02T02:25:53.000Z,65.19
2018-09-02T02:26:24.216Z,65.99
2018-09-02T02:26:55.404Z,65.89
2018-09-02T02:27:26.520Z,65.65
2018-09-02T02:27:57.643Z,66.23
2018-09-02T02:28:28.759Z,66.00
2018-09-02T02:28:59.877Z,66.07
2018-09-02T02:29:31.004Z,66.40
2018-09-02T02:30:02.171Z,66.88
2018-09-02T02:30:33.292Z,66.33
2018-09-02T02:31:04.422Z,66.24
2018-09-02T02:31:35.532Z,66.67
2018-09-02T02:32:06.767Z,66.67
2018-09-02T02:32:37.994Z,66.67
2018-09-02T02:33:09.118Z,66.23
2018-09-02T02:33:40.360Z,66.38
2018-09-02T02:34:11.567Z,66.40
2018-09-02T02:34:42.744Z,66.92
2018-09-02T02:35:13.876Z,66.78
2018-09-02T02:35:44.997Z,66.46
2018-09-02T02:36:16.120Z,66.73
2018-09-02T02:36:47.236Z,66.44
2018-09-02T02:37:18.409Z,66.50
2018-09-02T02:37:49.633Z,66.52
2018-09-02T02:38:20.876Z,66.73
2018-09-02T02:38:52.086Z,66.96
2018-09-02T02:39:23.270Z,67.06
2018-09-02T02:39:54.452Z,67.34
2018-09-02T02:40:25.636Z,67.25
2018-09-02T02:40:56.832Z,67.51
2018-09-02T02:41:27.956Z,67.65
2018-09-02T02:41:59.144Z,67.54
2018-09-02T02:42:30.316Z,67.87
2018-09-02T02:43:01.553Z,67.40
2018-09-02T02:43:32.737Z,67.12
2018-09-02T02:44:03.868Z,67.67
2018-09-02T02:44:34.988Z,67.35
2018-09-02T02:45:06.112Z,67.44
2018-09-02T02:45:37.304Z,67.60
2018-09-02T02:46:08.487Z,67.92
2018-09-02T02:46:39.653Z,67.79
2018-09-02T02:47:10.782Z,68.25
2018-09-02T02:47:41.933Z,68.90
2018-09-02T02:48:13.109Z,69.01
2018-09-02T02:48:44.299Z,68.20
2018-09-02T02:49:15.424Z,68.11
2018-09-02T02:49:46.653Z,68.07
2018-09-02T02:50:17.832Z,68.51
2018-09-02T02:50:49.073Z,68.82
2018-09-02T02:51:20.264Z,68.31
2018-09-02T02:51:51.444Z,68.49
2018-09-02T02:52:22.609Z,67.98
2018-09-02T02:52:53.840Z,68.41
2018-09-02T02:53:25.055Z,67.57
2018-09-02T02:53:56.347Z,67.22
2018-09-02T02:54:27.626Z,67.78
2018-09-02T02:54:58.786Z,67.10
2018-09-02T02:55:29.943Z,67.53
2018-09-02T02:56:01.111Z,67.85
2018-09-02T02:56:32.254Z,67.18
2018-09-02T02:57:03.399Z,67.73
2018-09-02T02:57:34.565Z,67.99
2018-09-02T02:58:05.802Z,68.56
2018-09-02T02:58:36.972Z,68.27
2018-09-02T02:59:08.188Z,68.63
2018-09-02T02:59:39.310Z,67.98
2018-09-02T03:00:10.432Z,68.85
2018-09-02T03:00:41.600Z,68.71
2018-09-02T03:01:12.771Z,69.11
2018-09-02T03:01:43.950Z,69.29
2018-09-02T03:02:15.067Z,69.13
2018-09-02T03:02:46.244Z,69.04
2018-09-02T03:03:17.373Z,69.20
2018-09-02T03:03:48.487Z,69.20
2018-09-02T03:04:19.653Z,69.19
2018-09-02T03:04:50.842Z,68.96
2018-09-02T03:05:21.973Z,69.19
2018-09-02T03:05:53.150Z,68.99
2018-09-02T03:06:24.324Z,69.13
2018-09-02T03:06:55.448Z,69.04
2018-09-02T03:07:26.622Z,69.13
2018-09-02T03:07:57.816Z,68.70
2018-09-02T03:08:28.988Z,68.62
2018-09-02T03:09:00.184Z,68.94
2018-09-02T03:09:31.362Z,68.62
2018-09-02T03:10:02.526Z,67.94
2018-09-02T03:10:33.639Z,68.68
2018-09-02T03:11:04.751Z,68.08
2018-09-02T03:11:35.960Z,67.04
2018-09-02T03:12:07.192Z,67.06
2018-09-02T03:12:38.441Z,67.63
2018-09-02T03:13:09.904Z,66.84
2018-09-02T03:13:41.024Z,67.50
2018-09-02T03:14:12.226Z,67.32
2018-09-02T03:14:43.733Z,67.30
2018-09-02T03:15:14.847Z,67.46
2018-09-02T03:15:45.991Z,66.92
2018-09-02T03:16:17.170Z,66.96
2018-09-02T03:16:48.321Z,67.32
2018-09-02T03:17:19.454Z,66.74
2018-09-02T03:17:50.652Z,67.07
2018-09-02T03:18:21.965Z,66.60
2018-09-02T03:18:53.083Z,66.89
2018-09-02T03:19:24.330Z,67.05
2018-09-02T03:19:55.496Z,67.65
2018-09-02T03:20:26.648Z,66.87
2018-09-02T03:20:57.763Z,67.48
2018-09-02T03:21:28.944Z,66.94
2018-09-02T03:22:00.116Z,67.83
2018-09-02T03:22:31.368Z,67.38
2018-09-02T03:23:02.601Z,67.70
2018-09-02T03:23:33.780Z,67.56
2018-09-02T03:24:04.948Z,67.83
2018-09-02T03:24:36.130Z,67.41
2018-09-02T03:25:07.248Z,67.51
2018-09-02T03:25:38.449Z,68.13
2018-09-02T03:26:09.631Z,67.71
2018-09-02T03:26:40.842Z,68.13
2018-09-02T03:27:11.967Z,68.07
2018-09-02T03:27:43.145Z,68.02
2018-09-02T03:28:14.320Z,68.37
2018-09-02T03:28:45.439Z,67.70
2018-09-02T03:29:16.555Z,67.93
2018-09-02T03:29:47.679Z,67.29
2018-09-02T03:30:18.903Z,67.71
2018-09-02T03:30:50.160Z,67.15
2018-09-02T03:31:21.281Z,67.57
2018-09-02T03:31:53.124Z,68.44
2018-09-02T03:32:24.316Z,68.32
2018-09-02T03:32:55.431Z,68.29
2018-09-02T03:33:26.548Z,67.92
2018-09-02T03:38:46.478Z,68.81
2018-09-02T03:39:17.673Z,69.82
2018-09-02T03:39:48.787Z,69.49
2018-09-02T03:40:19.958Z,69.15
2018-09-02T03:40:51.088Z,69.43
2018-09-02T03:41:22.257Z,69.69
2018-09-02T03:41:53.448Z,68.84
2018-09-02T03:42:24.662Z,68.77
2018-09-02T03:42:55.914Z,68.68
2018-09-02T03:43:27.096Z,68.54
2018-09-02T03:43:58.230Z,69.15
2018-09-02T03:44:29.364Z,68.28
2018-09-02T03:45:00.537Z,68.72
2018-09-02T03:45:31.652Z,68.18
2018-09-02T03:46:02.882Z,68.16
2018-09-02T03:46:34.003Z,68.06
2018-09-02T03:47:05.160Z,67.89
2018-09-02T03:47:36.338Z,67.96
2018-09-02T03:48:07.452Z,67.83
2018-09-02T03:48:38.680Z,67.64
2018-09-02T03:49:09.861Z,67.47
2018-09-02T03:49:40.987Z,67.35
2018-09-02T03:50:12.151Z,67.16
2018-09-02T03:50:43.240Z,67.65
2018-09-02T03:51:14.363Z,67.78
2018-09-02T03:51:45.501Z,67.17
2018-09-02T03:52:16.663Z,67.22
2018-09-02T03:52:47.909Z,67.32
2018-09-02T03:53:19.120Z,67.66
2018-09-02T03:53:50.239Z,67.42
2018-09-02T03:54:21.409Z,67.37
2018-09-02T03:54:52.586Z,67.00
2018-09-02T03:55:23.808Z,67.23
2018-09-02T03:55:55.047Z,66.59
2018-09-02T03:56:26.281Z,66.70
2018-09-02T03:56:57.472Z,66.17
2018-09-02T03:57:28.688Z,66.89
2018-09-02T03:57:59.863Z,66.73
2018-09-02T03:58:31.022Z,66.19
2018-09-02T03:59:02.148Z,66.22
2018-09-02T03:59:33.313Z,65.63
2018-09-02T04:00:04.530Z,66.18
2018-09-02T04:00:35.673Z,66.31
2018-09-02T04:01:06.799Z,66.06
2018-09-02T04:01:37.924Z,66.72
2018-09-02T04:02:09.110Z,66.32
2018-09-02T04:02:40.367Z,67.08
2018-09-02T04:03:11.580Z,66.57
2018-09-02T04:03:42.740Z,66.88
2018-09-02T04:04:13.913Z,67.00
2018-09-02T04:04:45.087Z,66.85
2018-09-02T04:05:16.240Z,66.95
2018-09-02T04:05:47.436Z,67.51
2018-09-02T04:06:18.693Z,67.54
2018-09-02T04:06:49.978Z,67.38
2018-09-02T04:07:21.168Z,67.00
2018-09-02T04:07:52.337Z,67.33
2018-09-02T04:08:23.577Z,66.58
2018-09-02T04:08:54.760Z,66.74
2018-09-02T04:09:25.896Z,66.34
2018-09-02T04:09:57.068Z,65.51
2018-09-02T04:10:28.252Z,65.05
2018-09-02T04:10:59.416Z,65.01
2018-09-02T04:11:30.613Z,63.87
2018-09-02T04:12:01.736Z,64.19
2018-09-02T04:12:32.857Z,63.69
2018-09-02T04:13:04.028Z,62.93
2018-09-02T04:13:35.219Z,62.82
2018-09-02T04:14:06.400Z,62.58
2018-09-02T04:14:37.528Z,62.36
2018-09-02T04:15:08.666Z,61.92
2018-09-02T04:15:39.788Z,61.92
2018-09-02T04:16:11.027Z,61.56
2018-09-02T04:16:42.256Z,62.16
2018-09-02T04:17:13.421Z,61.89
2018-09-02T04:17:44.532Z,61.92
2018-09-02T04:18:15.709Z,61.73
2018-09-02T04:18:46.853Z,61.67
2018-09-02T04:19:18.085Z,61.22
2018-09-02T04:19:49.218Z,61.10
2018-09-02T04:20:20.442Z,61.13
2018-09-02T04:20:51.634Z,60.67
2018-09-02T04:21:22.852Z,60.35
2018-09-02T04:21:53.964Z,60.35
2018-09-02T04:22:25.073Z,59.84
2018-09-02T04:22:56.240Z,59.53
2018-09-02T04:23:27.416Z,58.83
2018-09-02T04:23:58.558Z,58.32
2018-09-02T04:24:29.666Z,58.81
2018-09-02T04:25:00.832Z,58.08
2018-09-02T04:25:32.097Z,58.31
2018-09-02T04:26:03.218Z,57.68
2018-09-02T04:26:34.443Z,57.83
2018-09-02T04:27:05.568Z,57.05
2018-09-02T04:27:36.677Z,57.46
2018-09-02T04:28:08.067Z,57.18
2018-09-02T04:28:39.235Z,56.66
2018-09-02T04:29:10.392Z,57.10
2018-09-02T04:29:41.515Z,56.10
2018-09-02T04:30:12.684Z,56.56
2018-09-02T04:30:43.869Z,56.34
2018-09-02T04:31:15.045Z,56.57
2018-09-02T04:31:46.256Z,56.24
2018-09-02T04:32:17.412Z,56.69
2018-09-02T04:32:48.580Z,56.24
2018-09-02T04:33:19.764Z,55.83
2018-09-02T04:33:50.970Z,55.30
2018-09-02T04:34:22.156Z,55.16
2018-09-02T04:34:53.745Z,55.03
2018-09-02T04:35:24.908Z,54.87
2018-09-02T04:35:56.077Z,54.99
2018-09-02T04:36:27.248Z,54.95
2018-09-02T04:36:58.479Z,54.76
2018-09-02T04:37:30.094Z,55.10
2018-09-02T04:38:01.252Z,54.24
2018-09-02T04:38:32.435Z,53.92
2018-09-02T04:39:03.560Z,53.87
2018-09-02T04:39:34.688Z,53.66
2018-09-02T04:40:05.865Z,54.15
2018-09-02T04:40:36.984Z,53.94
2018-09-02T04:41:08.136Z,53.22
2018-09-02T04:41:39.327Z,53.25
2018-09-02T04:42:10.569Z,53.28
2018-09-02T04:42:41.694Z,53.44
2018-09-02T04:43:12.851Z,53.82
2018-09-02T04:43:44.032Z,53.48
2018-09-02T04:44:15.271Z,53.14
2018-09-02T04:44:46.394Z,52.27
2018-09-02T04:45:17.619Z,52.93
2018-09-02T04:45:48.728Z,52.59
2018-09-02T04:46:19.889Z,52.62
2018-09-02T04:46:51.092Z,51.90
2018-09-02T04:47:22.266Z,51.84
2018-09-02T04:47:53.504Z,51.06
2018-09-02T04:48:24.791Z,51.52
2018-09-02T04:48:56.021Z,51.20
2018-09-02T04:49:27.221Z,50.39
2018-09-02T04:49:58.384Z,50.26
2018-09-02T04:50:29.552Z,49.88
2018-09-02T04:51:00.673Z,49.63
2018-09-02T04:51:31.848Z,49.45
2018-09-02T04:52:02.972Z,50.04
2018-09-02T04:52:34.149Z,49.50
2018-09-02T04:53:05.270Z,48.59
2018-09-02T04:53:36.488Z,49.04
2018-09-02T04:54:07.665Z,49.06
2018-09-02T04:54:38.783Z,48.36
2018-09-02T04:55:09.898Z,48.76
2018-09-02T04:55:41.061Z,48.52
2018-09-02T04:56:12.244Z,48.54
2018-09-02T04:56:43.412Z,47.94
2018-09-02T04:57:14.575Z,47.33
2018-09-02T04:57:45.771Z,47.81
2018-09-02T04:58:16.958Z,46.77
2018-09-02T04:58:48.132Z,46.77
2018-09-02T04:59:19.301Z,46.77
2018-09-02T04:59:50.433Z,45.91
2018-09-02T05:00:21.674Z,46.47
2018-09-02T05:00:52.831Z,46.35
2018-09-02T05:01:24.004Z,45.52
2018-09-02T05:01:55.197Z,45.29
2018-09-02T05:02:26.336Z,44.35
2018-09-02T05:02:57.464Z,44.19
2018-09-02T05:03:28.651Z,44.56
2018-09-02T05:03:59.877Z,44.00
2018-09-02T05:04:31.053Z,43.22
2018-09-02T05:05:02.180Z,43.19
2018-09-02T05:05:33.306Z,43.67
2018-09-02T05:06:04.468Z,42.24
2018-09-02T05:06:35.706Z,42.98
2018-09-02T05:07:06.940Z,42.86
2018-09-02T05:07:38.060Z,42.81
2018-09-02T05:08:09.184Z,42.39
2018-09-02T05:08:40.349Z,41.83
2018-09-02T05:09:11.510Z,42.12
2018-09-02T05:09:42.651Z,42.75
2018-09-02T05:10:13.771Z,42.32
2018-09-02T05:10:44.972Z,42.43
2018-09-02T05:11:16.142Z,42.20
2018-09-02T05:11:47.278Z,41.48
2018-09-02T05:12:18.466Z,42.59
2018-09-02T05:12:49.698Z,42.63
2018-09-02T05:13:20.864Z,42.91
2018-09-02T05:13:52.048Z,42.03
2018-09-02T05:14:23.228Z,41.25
2018-09-02T05:14:54.366Z,41.85
2018-09-02T05:15:25.511Z,41.78
2018-09-02T05:15:56.688Z,40.71
2018-09-02T05:16:27.816Z,40.55
2018-09-02T05:16:58.928Z,40.80
2018-09-02T05:17:30.111Z,40.97
2018-09-02T05:18:01.605Z,40.79
2018-09-02T05:18:32.801Z,40.64
2018-09-02T05:19:04.025Z,40.30
2018-09-02T05:19:35.175Z,40.00
2018-09-02T05:20:06.410Z,39.81
2018-09-02T05:20:37.540Z,39.48
2018-09-02T05:21:08.724Z,39.31
2018-09-02T05:21:39.910Z,38.88
2018-09-02T05:22:11.032Z,38.90
2018-09-02T05:22:42.151Z,39.00
2018-09-02T05:23:13.395Z,39.28
2018-09-02T05:23:44.584Z,39.45
2018-09-02T05:24:15.807Z,39.55
2018-09-02T05:24:46.928Z,39.46
2018-09-02T05:25:18.059Z,39.38
2018-09-02T05:25:49.299Z,39.22
2018-09-02T05:26:20.481Z,39.17
2018-09-02T05:26:51.611Z,38.90
2018-09-02T05:27:22.841Z,38.98
2018-09-02T05:27:54.026Z,38.83
2018-09-02T05:28:25.293Z,39.00
2018-09-02T05:28:56.542Z,38.98
2018-09-02T05:29:27.719Z,38.50
2018-09-02T05:29:58.848Z,38.61
2018-09-02T05:30:30.043Z,38.28
2018-09-02T05:31:01.175Z,38.30
2018-09-02T05:31:32.454Z,38.13
2018-09-02T05:32:03.634Z,37.82
2018-09-02T05:32:34.828Z,37.75
2018-09-02T05:33:05.975Z,37.56
2018-09-02T05:33:37.135Z,37.54
2018-09-02T05:34:08.268Z,37.45
2018-09-02T05:34:39.371Z,37.74
2018-09-02T05:35:10.602Z,37.57
2018-09-02T05:35:41.729Z,37.61
2018-09-02T05:36:12.938Z,37.93
2018-09-02T05:36:44.438Z,38.09
2018-09-02T05:37:15.548Z,38.38
2018-09-02T05:37:46.667Z,38.37
2018-09-02T05:38:17.797Z,38.40
2018-09-02T05:38:48.952Z,38.22
2018-09-02T05:39:20.130Z,38.18
2018-09-02T05:39:51.349Z,38.25
2018-09-02T05:40:22.534Z,38.40
2018-09-02T05:40:53.749Z,38.27
2018-09-02T05:41:24.857Z,38.28
2018-09-02T05:41:56.075Z,38.29
2018-09-02T05:42:27.211Z,38.38
2018-09-02T05:42:58.380Z,38.47
2018-09-02T05:43:29.556Z,38.67
2018-09-02T05:44:00.804Z,38.89
2018-09-02T05:44:31.888Z,38.88
2018-09-02T05:45:03.109Z,38.53
2018-09-02T05:45:34.337Z,38.69
2018-09-02T05:46:05.452Z,38.59
2018-09-02T05:46:36.595Z,39.02
2018-09-02T05:47:07.704Z,38.66
2018-09-02T05:47:38.815Z,38.70
2018-09-02T05:48:09.927Z,39.18
2018-09-02T05:48:41.040Z,39.06
2018-09-02T05:49:12.172Z,39.20
2018-09-02T05:49:43.282Z,39.18
2018-09-02T05:50:14.492Z,39.37
2018-09-02T05:50:45.643Z,39.59
2018-09-02T05:51:16.755Z,39.65
2018-09-02T05:51:47.940Z,39.70
2018-09-02T05:52:19.059Z,39.56
2018-09-02T05:52:50.241Z,39.57
2018-09-02T05:53:21.449Z,39.57
2018-09-02T05:53:52.648Z,39.81
2018-09-02T05:54:23.791Z,39.78
2018-09-02T05:54:54.974Z,40.04
2018-09-02T05:55:26.128Z,40.55
2018-09-02T05:55:57.271Z,40.50
2018-09-02T05:56:28.512Z,40.83
2018-09-02T05:56:59.676Z,40.65
2018-09-02T05:57:30.835Z,40.56
2018-09-02T05:58:01.936Z,40.58
2018-09-02T05:58:33.096Z,40.66
2018-09-02T05:59:04.214Z,40.50
2018-09-02T05:59:35.340Z,40.77
2018-09-02T06:00:06.508Z,41.19
2018-09-02T06:00:37.732Z,41.53
2018-09-02T06:01:08.904Z,41.42
2018-09-02T06:01:40.069Z,41.77
2018-09-02T06:02:11.305Z,41.93
2018-09-02T06:02:42.585Z,42.32
2018-09-02T06:03:13.700Z,41.96
2018-09-02T06:03:44.832Z,41.61
2018-09-02T06:04:16.017Z,42.28
2018-09-02T06:04:47.254Z,42.02
2018-09-02T06:05:18.428Z,41.35
2018-09-02T06:05:49.640Z,41.73
2018-09-02T06:06:20.785Z,41.91
2018-09-02T06:06:52.017Z,42.25
2018-09-02T06:07:23.266Z,43.07
2018-09-02T06:07:54.449Z,43.08
2018-09-02T06:08:25.563Z,42.51
2018-09-02T06:08:56.785Z,41.47
2018-09-02T06:09:27.909Z,42.56
2018-09-02T06:09:59.093Z,42.64
2018-09-02T06:10:30.233Z,42.51
2018-09-02T06:11:01.461Z,42.95
2018-09-02T06:11:32.645Z,42.97
2018-09-02T06:12:03.881Z,43.19
2018-09-02T06:12:35.013Z,43.18
2018-09-02T06:13:06.258Z,43.27
2018-09-02T06:13:37.384Z,42.94
2018-09-02T06:14:08.544Z,42.55
2018-09-02T06:14:39.768Z,42.72
2018-09-02T06:15:10.909Z,42.86
2018-09-02T06:15:42.019Z,42.17
2018-09-02T06:16:13.140Z,43.38
2018-09-02T06:16:45.132Z,42.71
2018-09-02T06:17:16.378Z,43.03
2018-09-02T06:17:47.488Z,43.11
2018-09-02T06:18:18.622Z,42.72
2018-09-02T06:18:49.820Z,43.64
2018-09-02T06:19:21.053Z,43.37
2018-09-02T06:19:52.218Z,43.53
2018-09-02T06:20:23.356Z,43.52
2018-09-02T06:20:54.485Z,43.15
2018-09-02T06:21:25.681Z,43.62
2018-09-02T06:21:56.893Z,43.66
2018-09-02T06:22:28.077Z,43.73
2018-09-02T06:22:59.256Z,43.51
2018-09-02T06:23:30.383Z,43.56
2018-09-02T06:24:01.566Z,43.75
2018-09-02T06:24:32.744Z,43.78
2018-09-02T06:25:03.875Z,43.75
2018-09-02T06:25:35.133Z,43.42
2018-09-02T06:26:06.337Z,43.49
2018-09-02T06:26:37.477Z,43.55
2018-09-02T06:27:08.656Z,43.23
2018-09-02T06:27:39.836Z,42.64
2018-09-02T06:28:11.009Z,42.81
2018-09-02T06:28:42.126Z,42.24
2018-09-02T06:29:13.339Z,41.98
2018-09-02T06:29:44.470Z,42.98
2018-09-02T06:30:15.645Z,43.21
2018-09-02T06:30:46.796Z,42.99
2018-09-02T06:31:17.972Z,42.73
2018-09-02T06:31:49.088Z,42.26
2018-09-02T06:32:20.283Z,42.05
2018-09-02T06:32:51.467Z,42.62
2018-09-02T06:33:22.565Z,42.48
2018-09-02T06:33:53.724Z,42.86
2018-09-02T06:34:24.958Z,43.02
2018-09-02T06:34:56.144Z,43.40
2018-09-02T06:35:27.395Z,43.78
2018-09-02T06:35:58.585Z,44.03
2018-09-02T06:36:29.719Z,44.20
2018-09-02T06:37:00.864Z,44.15
2018-09-02T06:37:32.016Z,44.27
2018-09-02T06:38:03.124Z,44.00
2018-09-02T06:38:34.315Z,43.11
2018-09-02T06:39:05.432Z,44.00
2018-09-02T06:39:36.574Z,43.80
2018-09-02T06:40:07.741Z,43.80
2018-09-02T06:40:38.883Z,43.56
2018-09-02T06:41:10.064Z,42.76
2018-09-02T06:41:41.220Z,42.36
2018-09-02T06:42:12.453Z,42.98
2018-09-02T06:42:43.685Z,42.62
2018-09-02T06:43:14.804Z,42.90
2018-09-02T06:43:45.919Z,41.99
2018-09-02T06:44:17.161Z,41.28
2018-09-02T06:44:48.365Z,41.31
2018-09-02T06:45:19.530Z,42.02
2018-09-02T06:45:50.762Z,41.55
2018-09-02T06:46:21.870Z,42.40